sensor_id;sensor_type;location;lat;lon;timestamp;temperature;humidity
72919;SHT30;61063;55.700;26.994;2022-11-15T00:04:23;3.3;86.7
72919;SHT30;61063;55.700;26.994;2022-11-15T00:09:53;3.2;86.6
72919;SHT30;61063;55.700;26.994;2022-11-15T00:14:55;3.2;86.7
72919;SHT30;61063;55.700;26.994;2022-11-15T00:19:13;3.2;86.8
72919;SHT30;61063;55.700;26.994;2022-11-15T00:24:29;3.3;86.7
72919;SHT30;61063;55.700;26.994;2022-11-15T00:29:37;3.3;86.5
72919;SHT30;61063;55.700;26.994;2022-11-15T00:34:53;3.2;86.7
72919;SHT30;61063;55.700;26.994;2022-11-15T00:39:13;3.2;86.7
72919;SHT30;61063;55.700;26.994;2022-11-15T00:44:55;3.2;86.4
72919;SHT30;61063;55.700;26.994;2022-11-15T00:49:27;3.2;86.3
72919;SHT30;61063;55.700;26.994;2022-11-15T00:54:43;3.2;86.2
72919;SHT30;61063;55.700;26.994;2022-11-15T00:59:55;3.2;86.1
72919;SHT30;61063;55.700;26.994;2022-11-15T01:04:19;3.2;86.2
72919;SHT30;61063;55.700;26.994;2022-11-15T01:09:15;3.2;86.2
72919;SHT30;61063;55.700;26.994;2022-11-15T01:14:55;3.3;86.1
72919;SHT30;61063;55.700;26.994;2022-11-15T01:19:19;3.3;86
72919;SHT30;61063;55.700;26.994;2022-11-15T01:24:55;3.3;86
72919;SHT30;61063;55.700;26.994;2022-11-15T01:29:57;3.3;85.8
72919;SHT30;61063;55.700;26.994;2022-11-15T01:34:17;3.4;85.8
72919;SHT30;61063;55.700;26.994;2022-11-15T01:39:33;3.4;85.7
72919;SHT30;61063;55.700;26.994;2022-11-15T01:44:41;3.5;85.5
72919;SHT30;61063;55.700;26.994;2022-11-15T01:50:00;3.5;85.5
72919;SHT30;61063;55.700;26.994;2022-11-15T01:55:00;3.5;85.4
72919;SHT30;61063;55.700;26.994;2022-11-15T01:59:57;3.5;85.3
72919;SHT30;61063;55.700;26.994;2022-11-15T02:04:35;3.6;85.2
72919;SHT30;61063;55.700;26.994;2022-11-15T02:09:47;3.5;85.3
72919;SHT30;61063;55.700;26.994;2022-11-15T02:14:25;3.5;85.3
72919;SHT30;61063;55.700;26.994;2022-11-15T02:19:22;3.5;85.5
72919;SHT30;61063;55.700;26.994;2022-11-15T02:25:03;3.4;86
72919;SHT30;61063;55.700;26.994;2022-11-15T02:30:02;3.3;86.6
72919;SHT30;61063;55.700;26.994;2022-11-15T02:34:31;3.2;86.9
72919;SHT30;61063;55.700;26.994;2022-11-15T02:39:58;3.2;87.1
72919;SHT30;61063;55.700;26.994;2022-11-15T02:44:33;3.2;87.3
72919;SHT30;61063;55.700;26.994;2022-11-15T02:49:17;3.2;87.3
72919;SHT30;61063;55.700;26.994;2022-11-15T02:54:33;3.3;87.3
72919;SHT30;61063;55.700;26.994;2022-11-15T02:59:36;3.2;87.2
72919;SHT30;61063;55.700;26.994;2022-11-15T03:04:43;3.2;87.5
72919;SHT30;61063;55.700;26.994;2022-11-15T03:09:46;3.2;87.7
72919;SHT30;61063;55.700;26.994;2022-11-15T03:15:00;3.1;87.8
72919;SHT30;61063;55.700;26.994;2022-11-15T03:19:59;3.1;87.9
72919;SHT30;61063;55.700;26.994;2022-11-15T03:24:47;3.1;88.1
72919;SHT30;61063;55.700;26.994;2022-11-15T03:29:26;3.2;88
72919;SHT30;61063;55.700;26.994;2022-11-15T03:34:46;3.3;87.9
72919;SHT30;61063;55.700;26.994;2022-11-15T03:39:07;3.3;87.8
72919;SHT30;61063;55.700;26.994;2022-11-15T03:45:01;3.2;87.7
72919;SHT30;61063;55.700;26.994;2022-11-15T03:49:27;3.2;87.6
72919;SHT30;61063;55.700;26.994;2022-11-15T03:54:55;3.2;87.7
72919;SHT30;61063;55.700;26.994;2022-11-15T03:59:25;3.1;87.6
72919;SHT30;61063;55.700;26.994;2022-11-15T04:04:29;3.1;87.7
72919;SHT30;61063;55.700;26.994;2022-11-15T04:09:31;3;87.7
72919;SHT30;61063;55.700;26.994;2022-11-15T04:14:41;3;87.7
72919;SHT30;61063;55.700;26.994;2022-11-15T04:19:53;3;87.8
72919;SHT30;61063;55.700;26.994;2022-11-15T04:24:53;3;87.7
72919;SHT30;61063;55.700;26.994;2022-11-15T04:29:21;3;87.6
72919;SHT30;61063;55.700;26.994;2022-11-15T04:34:57;3;87.6
72919;SHT30;61063;55.700;26.994;2022-11-15T04:39:45;3;87.4
72919;SHT30;61063;55.700;26.994;2022-11-15T04:44:27;3.1;87.4
72919;SHT30;61063;55.700;26.994;2022-11-15T04:49:55;3.2;87.3
72919;SHT30;61063;55.700;26.994;2022-11-15T04:54:55;3.1;87.1
72919;SHT30;61063;55.700;26.994;2022-11-15T04:59:53;3.1;87.1
72919;SHT30;61063;55.700;26.994;2022-11-15T05:04:27;3.1;87.2
72919;SHT30;61063;55.700;26.994;2022-11-15T05:09:55;3.1;87.1
72919;SHT30;61063;55.700;26.994;2022-11-15T05:14:05;3.1;87.2
72919;SHT30;61063;55.700;26.994;2022-11-15T05:19:15;3;87.2
72919;SHT30;61063;55.700;26.994;2022-11-15T05:24:17;3;87.4
72919;SHT30;61063;55.700;26.994;2022-11-15T05:29:39;3;87.4
72919;SHT30;61063;55.700;26.994;2022-11-15T05:34:43;3;87.4
72919;SHT30;61063;55.700;26.994;2022-11-15T05:39:57;3;87.4
72919;SHT30;61063;55.700;26.994;2022-11-15T05:44:17;3;87.4
72919;SHT30;61063;55.700;26.994;2022-11-15T05:49:55;3;87.5
72919;SHT30;61063;55.700;26.994;2022-11-15T05:54:43;3;87.5
72919;SHT30;61063;55.700;26.994;2022-11-15T05:59:15;3;87.5
72919;SHT30;61063;55.700;26.994;2022-11-15T06:04:43;3;87.6
72919;SHT30;61063;55.700;26.994;2022-11-15T06:09:17;3;87.7
72919;SHT30;61063;55.700;26.994;2022-11-15T06:14:57;3;87.7
72919;SHT30;61063;55.700;26.994;2022-11-15T06:19:29;3;87.8
72919;SHT30;61063;55.700;26.994;2022-11-15T06:24:55;3;87.7
72919;SHT30;61063;55.700;26.994;2022-11-15T06:29:13;3.1;87.7
72919;SHT30;61063;55.700;26.994;2022-11-15T06:34:05;3.1;87.5
72919;SHT30;61063;55.700;26.994;2022-11-15T06:39:27;3.1;87.5
72919;SHT30;61063;55.700;26.994;2022-11-15T06:44:17;3.2;87.4
72919;SHT30;61063;55.700;26.994;2022-11-15T06:49:29;3.2;87.4
72919;SHT30;61063;55.700;26.994;2022-11-15T06:54:51;3.1;87.4
72919;SHT30;61063;55.700;26.994;2022-11-15T06:59:53;3;87.8
72919;SHT30;61063;55.700;26.994;2022-11-15T07:04:53;3;87.7
72919;SHT30;61063;55.700;26.994;2022-11-15T07:09:43;3;88
72919;SHT30;61063;55.700;26.994;2022-11-15T07:14:23;3;88.1
72919;SHT30;61063;55.700;26.994;2022-11-15T07:19:39;3;88.1
72919;SHT30;61063;55.700;26.994;2022-11-15T07:24:15;3;88.1
72919;SHT30;61063;55.700;26.994;2022-11-15T07:29:41;3;88.1
72919;SHT30;61063;55.700;26.994;2022-11-15T07:34:17;3;88.3
72919;SHT30;61063;55.700;26.994;2022-11-15T07:39:55;3.1;88.2
72919;SHT30;61063;55.700;26.994;2022-11-15T07:44:55;3.1;88.1
72919;SHT30;61063;55.700;26.994;2022-11-15T07:49:17;3.1;88.2
72919;SHT30;61063;55.700;26.994;2022-11-15T07:54:31;3.1;88.2
72919;SHT30;61063;55.700;26.994;2022-11-15T07:59:37;3.1;88.5
72919;SHT30;61063;55.700;26.994;2022-11-15T08:04:37;3.2;88.2
72919;SHT30;61063;55.700;26.994;2022-11-15T08:09:53;3.2;88.2
72919;SHT30;61063;55.700;26.994;2022-11-15T08:14:53;3.2;88.3
72919;SHT30;61063;55.700;26.994;2022-11-15T08:19:53;3.2;88.4
72919;SHT30;61063;55.700;26.994;2022-11-15T08:24:41;3.2;88.5
72919;SHT30;61063;55.700;26.994;2022-11-15T08:29:15;3.2;88.5
72919;SHT30;61063;55.700;26.994;2022-11-15T08:34:41;3.2;88.5
72919;SHT30;61063;55.700;26.994;2022-11-15T08:39:15;3.2;88.6
72919;SHT30;61063;55.700;26.994;2022-11-15T08:44:53;3.3;88.7
72919;SHT30;61063;55.700;26.994;2022-11-15T08:49:27;3.3;88.7
72919;SHT30;61063;55.700;26.994;2022-11-15T08:54:53;3.3;88.9
72919;SHT30;61063;55.700;26.994;2022-11-15T08:59:25;3.3;89
72919;SHT30;61063;55.700;26.994;2022-11-15T09:04:51;3.3;88.9
72919;SHT30;61063;55.700;26.994;2022-11-15T09:09:27;3.3;89.1
72919;SHT30;61063;55.700;26.994;2022-11-15T09:14:39;3.4;89.2
72919;SHT30;61063;55.700;26.994;2022-11-15T09:19:29;3.5;89.1
72919;SHT30;61063;55.700;26.994;2022-11-15T09:24:45;3.6;89
72919;SHT30;61063;55.700;26.994;2022-11-15T09:29:19;3.6;89
72919;SHT30;61063;55.700;26.994;2022-11-15T09:34:53;3.6;89.1
72919;SHT30;61063;55.700;26.994;2022-11-15T09:39:41;3.6;89.1
72919;SHT30;61063;55.700;26.994;2022-11-15T09:44:30;3.6;89.3
72919;SHT30;61063;55.700;26.994;2022-11-15T09:49:41;3.7;89.3
72919;SHT30;61063;55.700;26.994;2022-11-15T09:54:16;3.8;89
72919;SHT30;61063;55.700;26.994;2022-11-15T09:59:58;3.9;89.1
72919;SHT30;61063;55.700;26.994;2022-11-15T10:04:27;4.1;89.1
72919;SHT30;61063;55.700;26.994;2022-11-15T10:09:28;4.2;88.7
72919;SHT30;61063;55.700;26.994;2022-11-15T10:14:15;4.2;88.5
72919;SHT30;61063;55.700;26.994;2022-11-15T10:19:56;4.2;88.6
72919;SHT30;61063;55.700;26.994;2022-11-15T10:24:28;4.3;88.7
72919;SHT30;61063;55.700;26.994;2022-11-15T10:29:40;4.5;88.6
72919;SHT30;61063;55.700;26.994;2022-11-15T10:34:41;4.5;88.3
72919;SHT30;61063;55.700;26.994;2022-11-15T10:40:03;4.5;88.5
72919;SHT30;61063;55.700;26.994;2022-11-15T10:44:19;4.4;88.7
72919;SHT30;61063;55.700;26.994;2022-11-15T10:49:55;4.4;89
72919;SHT30;61063;55.700;26.994;2022-11-15T10:54:44;4.5;89
72919;SHT30;61063;55.700;26.994;2022-11-15T10:59:28;4.6;88.9
72919;SHT30;61063;55.700;26.994;2022-11-15T11:04:48;4.6;88.9
72919;SHT30;61063;55.700;26.994;2022-11-15T11:09:23;4.7;89
72919;SHT30;61063;55.700;26.994;2022-11-15T11:14:53;4.7;88.9
72919;SHT30;61063;55.700;26.994;2022-11-15T11:19:19;4.7;89
72919;SHT30;61063;55.700;26.994;2022-11-15T11:24:56;4.7;89
72919;SHT30;61063;55.700;26.994;2022-11-15T11:29:19;4.7;89.1
72919;SHT30;61063;55.700;26.994;2022-11-15T11:34:56;4.7;89.2
72919;SHT30;61063;55.700;26.994;2022-11-15T11:39:31;4.8;89.2
72919;SHT30;61063;55.700;26.994;2022-11-15T11:44:24;4.8;89.1
72919;SHT30;61063;55.700;26.994;2022-11-15T11:49:29;4.9;89
72919;SHT30;61063;55.700;26.994;2022-11-15T11:54:44;5;88.9
72919;SHT30;61063;55.700;26.994;2022-11-15T11:59:19;5;88.7
72919;SHT30;61063;55.700;26.994;2022-11-15T12:04:48;5;88.7
72919;SHT30;61063;55.700;26.994;2022-11-15T12:09:58;5.1;88.9
72919;SHT30;61063;55.700;26.994;2022-11-15T12:14:32;5.1;88.9
72919;SHT30;61063;55.700;26.994;2022-11-15T12:19:56;5.2;88.8
72919;SHT30;61063;55.700;26.994;2022-11-15T12:24:18;5.2;88.5
72919;SHT30;61063;55.700;26.994;2022-11-15T12:29:56;5.1;88.7
72919;SHT30;61063;55.700;26.994;2022-11-15T12:34:39;5.1;88.9
72919;SHT30;61063;55.700;26.994;2022-11-15T12:40:18;5.1;89
72919;SHT30;61063;55.700;26.994;2022-11-15T12:44:55;5.2;89
72919;SHT30;61063;55.700;26.994;2022-11-15T12:49:45;5.2;89.1
72919;SHT30;61063;55.700;26.994;2022-11-15T12:59:53;5.2;89.3
72919;SHT30;61063;55.700;26.994;2022-11-15T13:04:21;5.2;89.3
72919;SHT30;61063;55.700;26.994;2022-11-15T13:09:55;5.2;89.2
72919;SHT30;61063;55.700;26.994;2022-11-15T13:14:57;5.2;89.2
72919;SHT30;61063;55.700;26.994;2022-11-15T13:19:58;5.2;89.3
72919;SHT30;61063;55.700;26.994;2022-11-15T13:24:57;5.2;89.6
72919;SHT30;61063;55.700;26.994;2022-11-15T13:29:39;5.3;89.5
72919;SHT30;61063;55.700;26.994;2022-11-15T13:34:42;5.3;89.6
72919;SHT30;61063;55.700;26.994;2022-11-15T13:39:26;5.2;89.8
72919;SHT30;61063;55.700;26.994;2022-11-15T13:44:58;5.2;90
72919;SHT30;61063;55.700;26.994;2022-11-15T13:49:30;5.3;90.1
72919;SHT30;61063;55.700;26.994;2022-11-15T13:54:58;5.3;90
72919;SHT30;61063;55.700;26.994;2022-11-15T13:59:28;5.3;90
72919;SHT30;61063;55.700;26.994;2022-11-15T14:04:18;5.3;90.1
72919;SHT30;61063;55.700;26.994;2022-11-15T14:09:34;5.4;90
72919;SHT30;61063;55.700;26.994;2022-11-15T14:14:44;5.4;90.1
72919;SHT30;61063;55.700;26.994;2022-11-15T14:19:34;5.4;90
72919;SHT30;61063;55.700;26.994;2022-11-15T14:24:39;5.4;90.1
72919;SHT30;61063;55.700;26.994;2022-11-15T14:29:24;5.4;90.2
72919;SHT30;61063;55.700;26.994;2022-11-15T14:34:58;5.4;90.2
72919;SHT30;61063;55.700;26.994;2022-11-15T14:39:57;5.4;90.2
72919;SHT30;61063;55.700;26.994;2022-11-15T14:44:41;5.4;90.3
72919;SHT30;61063;55.700;26.994;2022-11-15T14:49:43;5.5;90.3
72919;SHT30;61063;55.700;26.994;2022-11-15T14:54:17;5.5;90.2
72919;SHT30;61063;55.700;26.994;2022-11-15T14:59:55;5.4;90.4
72919;SHT30;61063;55.700;26.994;2022-11-15T15:04:17;5.5;90.5
72919;SHT30;61063;55.700;26.994;2022-11-15T15:09:57;5.5;90.5
72919;SHT30;61063;55.700;26.994;2022-11-15T15:14:25;5.5;90.5
72919;SHT30;61063;55.700;26.994;2022-11-15T15:19:57;5.5;90.5
72919;SHT30;61063;55.700;26.994;2022-11-15T15:24:57;5.6;90.5
72919;SHT30;61063;55.700;26.994;2022-11-15T15:29:37;5.6;90.6
72919;SHT30;61063;55.700;26.994;2022-11-15T15:34:57;5.6;90.6
72919;SHT30;61063;55.700;26.994;2022-11-15T15:39:39;5.7;90.5
72919;SHT30;61063;55.700;26.994;2022-11-15T15:44:17;5.8;90.3
72919;SHT30;61063;55.700;26.994;2022-11-15T15:49:53;5.8;90.2
72919;SHT30;61063;55.700;26.994;2022-11-15T15:54:43;5.8;90.2
72919;SHT30;61063;55.700;26.994;2022-11-15T15:59:39;5.8;90.1
72919;SHT30;61063;55.700;26.994;2022-11-15T16:04:27;5.8;90.1
72919;SHT30;61063;55.700;26.994;2022-11-15T16:09:55;5.8;90.1
72919;SHT30;61063;55.700;26.994;2022-11-15T16:14:21;5.9;90.1
72919;SHT30;61063;55.700;26.994;2022-11-15T16:19:45;5.9;90
72919;SHT30;61063;55.700;26.994;2022-11-15T16:24:29;5.9;90
72919;SHT30;61063;55.700;26.994;2022-11-15T16:29:55;5.9;90
72919;SHT30;61063;55.700;26.994;2022-11-15T16:34:17;5.9;89.9
72919;SHT30;61063;55.700;26.994;2022-11-15T16:39:43;5.8;89.8
72919;SHT30;61063;55.700;26.994;2022-11-15T16:44:31;5.8;89.8
72919;SHT30;61063;55.700;26.994;2022-11-15T16:49:57;5.8;89.7
72919;SHT30;61063;55.700;26.994;2022-11-15T16:54:57;5.9;89.6
72919;SHT30;61063;55.700;26.994;2022-11-15T16:59:55;5.9;89.5
72919;SHT30;61063;55.700;26.994;2022-11-15T17:04:33;5.9;89.4
72919;SHT30;61063;55.700;26.994;2022-11-15T17:09:57;5.9;89.5
72919;SHT30;61063;55.700;26.994;2022-11-15T17:14:45;5.9;89.4
72919;SHT30;61063;55.700;26.994;2022-11-15T17:19:16;5.9;89.4
72919;SHT30;61063;55.700;26.994;2022-11-15T17:24:29;5.9;89.4
72919;SHT30;61063;55.700;26.994;2022-11-15T17:29:31;6;89.3
72919;SHT30;61063;55.700;26.994;2022-11-15T17:34:33;5.9;89.2
72919;SHT30;61063;55.700;26.994;2022-11-15T17:39:19;5.9;89.3
72919;SHT30;61063;55.700;26.994;2022-11-15T17:44:47;5.9;89.4
72919;SHT30;61063;55.700;26.994;2022-11-15T17:49:43;5.9;89.4
72919;SHT30;61063;55.700;26.994;2022-11-15T17:54:43;5.9;89.5
72919;SHT30;61063;55.700;26.994;2022-11-15T17:59:41;5.9;89.5
72919;SHT30;61063;55.700;26.994;2022-11-15T18:04:53;5.9;89.6
72919;SHT30;61063;55.700;26.994;2022-11-15T18:09:57;5.9;89.6
72919;SHT30;61063;55.700;26.994;2022-11-15T18:14:17;5.9;89.8
72919;SHT30;61063;55.700;26.994;2022-11-15T18:19:45;5.8;89.9
72919;SHT30;61063;55.700;26.994;2022-11-15T18:24:43;5.8;89.9
72919;SHT30;61063;55.700;26.994;2022-11-15T18:29:43;5.8;90
72919;SHT30;61063;55.700;26.994;2022-11-15T18:34:27;5.8;90
72919;SHT30;61063;55.700;26.994;2022-11-15T18:39:57;5.8;90.1
72919;SHT30;61063;55.700;26.994;2022-11-15T18:44:31;5.8;90.2
72919;SHT30;61063;55.700;26.994;2022-11-15T18:49:45;5.9;90.2
72919;SHT30;61063;55.700;26.994;2022-11-15T18:54:29;5.9;90.2
72919;SHT30;61063;55.700;26.994;2022-11-15T18:59:55;5.9;90.1
72919;SHT30;61063;55.700;26.994;2022-11-15T19:04:55;5.9;90.2
72919;SHT30;61063;55.700;26.994;2022-11-15T19:09:43;5.9;90.1
72919;SHT30;61063;55.700;26.994;2022-11-15T19:14:31;5.9;90.1
72919;SHT30;61063;55.700;26.994;2022-11-15T19:19:57;5.8;90.2
72919;SHT30;61063;55.700;26.994;2022-11-15T19:24:39;5.8;90.2
72919;SHT30;61063;55.700;26.994;2022-11-15T19:29:17;5.8;90.2
72919;SHT30;61063;55.700;26.994;2022-11-15T19:34:45;5.7;90.3
72919;SHT30;61063;55.700;26.994;2022-11-15T19:39:45;5.7;90.4
72919;SHT30;61063;55.700;26.994;2022-11-15T19:44:45;5.7;90.3
72919;SHT30;61063;55.700;26.994;2022-11-15T19:49:59;5.5;89.7
72919;SHT30;61063;55.700;26.994;2022-11-15T19:54:59;5.4;89.4
72919;SHT30;61063;55.700;26.994;2022-11-15T19:59:05;5.3;89.5
72919;SHT30;61063;55.700;26.994;2022-11-15T20:04:46;5.2;89.5
72919;SHT30;61063;55.700;26.994;2022-11-15T20:09:59;5.1;89.4
72919;SHT30;61063;55.700;26.994;2022-11-15T20:14:59;4.7;88.7
72919;SHT30;61063;55.700;26.994;2022-11-15T20:19:59;4.4;89.2
72919;SHT30;61063;55.700;26.994;2022-11-15T20:24:07;4.2;89.2
72919;SHT30;61063;55.700;26.994;2022-11-15T20:29:31;4.1;88.7
72919;SHT30;61063;55.700;26.994;2022-11-15T20:34:43;4;88.4
72919;SHT30;61063;55.700;26.994;2022-11-15T20:39:59;4;87.9
72919;SHT30;61063;55.700;26.994;2022-11-15T20:44:59;3.8;87.5
72919;SHT30;61063;55.700;26.994;2022-11-15T20:49:59;3.6;87
72919;SHT30;61063;55.700;26.994;2022-11-15T20:54:45;3.4;87.2
72919;SHT30;61063;55.700;26.994;2022-11-15T20:59:43;3.3;87.3
72919;SHT30;61063;55.700;26.994;2022-11-15T21:04:59;3.1;86.5
72919;SHT30;61063;55.700;26.994;2022-11-15T21:09:17;3;85.7
72919;SHT30;61063;55.700;26.994;2022-11-15T21:14:59;2.9;86
72919;SHT30;61063;55.700;26.994;2022-11-15T21:19:45;2.8;86.6
72919;SHT30;61063;55.700;26.994;2022-11-15T21:24:29;2.8;87.4
72919;SHT30;61063;55.700;26.994;2022-11-15T21:29:55;2.7;87.9
72919;SHT30;61063;55.700;26.994;2022-11-15T21:34:59;2.6;88.2
72919;SHT30;61063;55.700;26.994;2022-11-15T21:39:59;2.5;88.4
72919;SHT30;61063;55.700;26.994;2022-11-15T21:44:59;2.4;88.8
72919;SHT30;61063;55.700;26.994;2022-11-15T21:49:59;2.3;88.8
72919;SHT30;61063;55.700;26.994;2022-11-15T21:54:43;2.2;89
72919;SHT30;61063;55.700;26.994;2022-11-15T21:59:13;2.2;89
72919;SHT30;61063;55.700;26.994;2022-11-15T22:04:53;2.3;89
72919;SHT30;61063;55.700;26.994;2022-11-15T22:09:41;2.2;88.8
72919;SHT30;61063;55.700;26.994;2022-11-15T22:14:25;2.2;88.6
72919;SHT30;61063;55.700;26.994;2022-11-15T22:19:25;2.3;88.3
72919;SHT30;61063;55.700;26.994;2022-11-15T22:24:55;2.3;88
72919;SHT30;61063;55.700;26.994;2022-11-15T22:29:53;2.3;87.8
72919;SHT30;61063;55.700;26.994;2022-11-15T22:34:55;2.3;87.9
72919;SHT30;61063;55.700;26.994;2022-11-15T22:39:25;2.2;87.7
72919;SHT30;61063;55.700;26.994;2022-11-15T22:44:53;2.2;87.6
72919;SHT30;61063;55.700;26.994;2022-11-15T22:49:13;2.1;87.8
72919;SHT30;61063;55.700;26.994;2022-11-15T22:54:55;2.1;87.8
72919;SHT30;61063;55.700;26.994;2022-11-15T22:59:27;2.1;87.8
72919;SHT30;61063;55.700;26.994;2022-11-15T23:04:37;2.1;87.6
72919;SHT30;61063;55.700;26.994;2022-11-15T23:09:55;2.1;87.4
72919;SHT30;61063;55.700;26.994;2022-11-15T23:14:17;2;87.7
72919;SHT30;61063;55.700;26.994;2022-11-15T23:19:13;1.9;88
72919;SHT30;61063;55.700;26.994;2022-11-15T23:24:41;1.8;88.5
72919;SHT30;61063;55.700;26.994;2022-11-15T23:29:26;1.8;88.8
72919;SHT30;61063;55.700;26.994;2022-11-15T23:34:25;1.8;88.7
72919;SHT30;61063;55.700;26.994;2022-11-15T23:39:13;1.8;88.7
72919;SHT30;61063;55.700;26.994;2022-11-15T23:44:25;1.7;88.7
72919;SHT30;61063;55.700;26.994;2022-11-15T23:49:41;1.6;89
72919;SHT30;61063;55.700;26.994;2022-11-15T23:54:25;1.6;89.2
72919;SHT30;61063;55.700;26.994;2022-11-15T23:59:53;1.6;89.4
